Time;durP1;ratioP1;P1;durP2;ratioP2;P2;SDS_P1;SDS_P2;PMS_P1;PMS_P2;Temp;Humidity;BMP_temperature;BMP_pressure;BME280_temperature;BME280_humidity;BME280_pressure;Samples;Min_cycle;Max_cycle;Signal;HPM_P1;HPM_P2
2022/11/12 00:00:10;;;;;;;7.07;6.07;;;11.00;99.90;;;;;;4978033;28;20524;-85
2022/11/12 00:03:12;;;;;;;7.67;6.10;;;10.90;99.90;;;;;;4964317;28;20463;-82
2022/11/12 00:05:48;;;;;;;6.43;5.37;;;10.80;99.90;;;;;;4958533;28;20471;-84
2022/11/12 00:08:24;;;;;;;8.10;6.17;;;10.70;99.90;;;;;;4961649;28;20449;-85
2022/11/12 00:10:59;;;;;;;6.70;6.00;;;10.70;99.90;;;;;;4962580;28;20463;-84
2022/11/12 00:13:42;;;;;;;;;;;;;;;;;;;;;
2022/11/12 00:16:16;;;;;;;7.30;5.57;;;10.90;99.90;;;;;;4972993;28;20498;-84
2022/11/12 00:18:48;;;;;;;8.37;5.60;;;10.80;99.90;;;;;;4962937;28;20450;-84
2022/11/12 00:21:31;;;;;;;6.73;6.10;;;10.70;99.90;;;;;;4955311;28;20521;-84
2022/11/12 00:24:04;;;;;;;7.63;6.43;;;10.60;99.90;;;;;;4960954;28;20948;-83
2022/11/12 00:26:34;;;;;;;8.90;5.97;;;10.80;99.90;;;;;;4962168;28;20466;-85
2022/11/12 00:29:06;;;;;;;6.80;6.00;;;10.90;99.90;;;;;;4961921;28;20455;-85
2022/11/12 00:31:44;;;;;;;5.83;5.37;;;10.80;99.90;;;;;;4963349;28;20454;-85
2022/11/12 00:34:17;;;;;;;7.97;6.53;;;10.80;99.90;;;;;;4963221;28;20463;-85
2022/11/12 00:37:11;;;;;;;8.57;6.33;;;10.90;99.90;;;;;;4962093;28;20481;-85
2022/11/12 00:39:42;;;;;;;6.40;5.47;;;11.00;99.90;;;;;;4962117;28;20910;-84
2022/11/12 00:42:38;;;;;;;8.90;6.40;;;10.90;99.90;;;;;;4965868;28;20479;-84
2022/11/12 00:45:32;;;;;;;6.20;5.30;;;10.80;99.90;;;;;;4954034;29;21095;-85
2022/11/12 00:48:07;;;;;;;6.27;5.50;;;10.70;99.90;;;;;;4955430;29;20473;-84
2022/11/12 00:50:49;;;;;;;5.47;4.97;;;10.80;99.90;;;;;;4959202;29;20454;-83
2022/11/12 00:53:21;;;;;;;7.27;5.87;;;10.70;99.90;;;;;;4959698;28;20534;-83
2022/11/12 00:56:08;;;;;;;9.80;6.33;;;10.60;99.90;;;;;;4959025;29;20495;-84
2022/11/12 00:58:52;;;;;;;6.27;5.30;;;10.40;99.90;;;;;;4957649;28;20994;-85
2022/11/12 01:01:31;;;;;;;6.60;6.00;;;10.40;99.90;;;;;;4957919;29;20495;-85
2022/11/12 01:04:05;;;;;;;5.60;4.40;;;10.50;99.90;;;;;;4948022;28;20447;-85
2022/11/12 01:06:41;;;;;;;6.77;6.07;;;10.50;99.90;;;;;;4959623;29;20846;-82
2022/11/12 01:09:20;;;;;;;7.30;5.80;;;10.40;99.90;;;;;;4961479;29;20449;-84
2022/11/12 01:12:04;;;;;;;6.50;5.10;;;10.30;99.90;;;;;;4938481;29;20461;-83
2022/11/12 01:14:47;;;;;;;5.43;4.93;;;10.40;99.90;;;;;;4942559;29;20472;-83
2022/11/12 01:17:23;;;;;;;6.67;4.67;;;10.40;99.90;;;;;;4952843;29;20490;-85
2022/11/12 01:19:55;;;;;;;6.03;5.27;;;10.50;99.90;;;;;;4975575;28;20451;-84
2022/11/12 01:22:24;;;;;;;5.70;5.20;;;10.30;99.90;;;;;;4972429;28;20475;-85
2022/11/12 01:24:59;;;;;;;6.00;5.00;;;10.20;99.90;;;;;;4963829;28;20945;-84
2022/11/12 01:27:35;;;;;;;8.50;4.80;;;10.40;99.90;;;;;;4970216;29;20460;-84
2022/11/12 01:30:07;;;;;;;5.60;5.10;;;10.30;99.90;;;;;;4970274;29;20454;-84
2022/11/12 01:32:38;;;;;;;6.30;5.10;;;10.20;99.90;;;;;;4966169;28;20476;-83
2022/11/12 01:38:08;;;;;;;8.97;6.10;;;10.10;99.90;;;;;;4957935;28;20527;-84
2022/11/12 01:40:53;;;;;;;7.97;6.10;;;10.20;99.90;;;;;;4948985;29;20574;-85
2022/11/12 01:43:30;;;;;;;5.83;5.23;;;10.30;99.90;;;;;;4960455;28;20480;-84
2022/11/12 01:46:36;;;;;;;6.30;5.27;;;10.40;99.90;;;;;;4958256;28;20471;-85
2022/11/12 01:49:17;;;;;;;7.40;6.47;;;10.30;99.90;;;;;;4960298;29;20963;-85
2022/11/12 01:51:53;;;;;;;5.83;5.23;;;10.20;99.90;;;;;;4948104;28;20562;-83
2022/11/12 01:54:24;;;;;;;6.67;4.90;;;10.20;99.90;;;;;;4965223;29;20510;-85
2022/11/12 01:57:07;;;;;;;6.03;5.40;;;10.40;99.90;;;;;;4960811;29;20469;-85
2022/11/12 01:59:51;;;;;;;5.60;5.00;;;10.30;99.90;;;;;;4959928;29;20488;-85
2022/11/12 02:02:35;;;;;;;8.83;6.13;;;10.20;99.90;;;;;;4978031;28;20471;-85
2022/11/12 02:05:22;;;;;;;7.87;5.37;;;10.20;99.90;;;;;;4962946;29;20518;-85
2022/11/12 02:08:33;;;;;;;6.70;5.00;;;10.30;99.90;;;;;;4957967;29;20523;-84
2022/11/12 02:11:19;;;;;;;5.07;4.50;;;10.10;99.90;;;;;;4933416;29;20459;-85
2022/11/12 02:14:19;;;;;;;5.80;4.67;;;10.00;99.90;;;;;;4963298;29;20459;-84
2022/11/12 02:20:25;;;;;;;5.97;4.43;;;9.90;99.90;;;;;;4957103;29;20467;-85
2022/11/12 02:23:31;;;;;;;5.67;4.83;;;9.80;99.90;;;;;;4962135;28;20461;-84
2022/11/12 02:26:31;;;;;;;5.07;4.63;;;9.90;99.90;;;;;;4959384;29;20507;-84
2022/11/12 02:29:19;;;;;;;5.47;4.97;;;10.10;99.90;;;;;;4968385;29;20530;-83
2022/11/12 02:34:59;;;;;;;5.40;4.90;;;10.10;99.90;;;;;;4939800;29;20474;-84
2022/11/12 02:37:51;;;;;;;8.23;4.30;;;10.00;99.90;;;;;;4950384;29;20491;-82
2022/11/12 02:40:57;;;;;;;6.30;5.57;;;9.90;99.90;;;;;;4961117;29;20454;-84
2022/11/12 02:46:24;;;;;;;8.17;4.23;;;9.80;99.90;;;;;;4992855;28;20481;-83
2022/11/12 02:49:23;;;;;;;5.90;4.73;;;9.90;99.90;;;;;;5000373;28;20446;-83
2022/11/12 02:55:11;;;;;;;5.30;4.60;;;9.90;99.90;;;;;;5094953;23;20482;-82
2022/11/12 02:58:17;;;;;;;6.37;4.67;;;10.00;99.90;;;;;;5004624;28;20441;-84
2022/11/12 03:01:17;;;;;;;4.97;4.47;;;9.80;99.90;;;;;;5005422;28;20440;-85
2022/11/12 03:04:14;;;;;;;6.67;5.60;;;9.80;99.90;;;;;;4997568;28;20452;-85
2022/11/12 03:06:47;;;;;;;5.90;5.30;;;9.80;99.90;;;;;;5000488;28;20471;-84
2022/11/12 03:09:20;;;;;;;5.90;5.40;;;9.80;99.90;;;;;;4984230;28;20458;-84
2022/11/12 03:12:00;;;;;;;5.80;4.90;;;9.80;99.90;;;;;;4985478;28;20467;-84
2022/11/12 03:15:03;;;;;;;7.10;5.27;;;9.80;99.90;;;;;;4966528;28;20454;-84
2022/11/12 03:21:17;;;;;;;5.77;5.07;;;9.60;99.90;;;;;;4983341;28;20544;-83
2022/11/12 03:24:09;;;;;;;8.10;5.70;;;9.80;99.90;;;;;;5009935;23;20483;-84
2022/11/12 03:26:43;;;;;;;6.57;5.60;;;9.90;99.90;;;;;;4987062;28;20472;-84
2022/11/12 03:29:36;;;;;;;7.37;6.60;;;9.70;99.90;;;;;;4979033;28;20450;-85
2022/11/12 03:32:25;;;;;;;5.70;4.90;;;9.70;99.90;;;;;;4961918;28;20523;-85
2022/11/12 03:35:22;;;;;;;7.53;5.77;;;9.70;99.90;;;;;;4960636;28;20456;-84
2022/11/12 03:38:10;;;;;;;6.60;6.00;;;9.80;99.90;;;;;;4953588;29;20482;-84
2022/11/12 03:41:00;;;;;;;6.10;5.47;;;9.70;99.90;;;;;;4972798;28;20514;-84
2022/11/12 03:44:09;;;;;;;8.67;5.67;;;9.60;99.90;;;;;;4976361;28;20514;-84
2022/11/12 03:46:55;;;;;;;6.57;5.97;;;9.60;99.90;;;;;;4947106;29;20448;-85
2022/11/12 03:49:34;;;;;;;6.20;5.60;;;9.60;99.90;;;;;;4961477;28;20455;-84
2022/11/12 03:52:18;;;;;;;6.27;5.67;;;9.60;99.90;;;;;;4962895;29;20476;-84
2022/11/12 03:54:56;;;;;;;6.80;5.53;;;9.60;99.90;;;;;;4953378;29;20499;-84
2022/11/12 03:57:37;;;;;;;6.27;5.67;;;9.40;99.90;;;;;;4974055;28;20486;-84
2022/11/12 04:00:31;;;;;;;6.70;5.87;;;9.50;99.90;;;;;;4963612;29;20523;-84
2022/11/12 04:03:37;;;;;;;6.33;5.77;;;9.50;99.90;;;;;;4955057;29;20467;-83
2022/11/12 04:09:08;;;;;;;7.97;6.00;;;9.40;99.90;;;;;;4979044;28;20514;-82
2022/11/12 04:11:53;;;;;;;7.57;6.57;;;9.40;99.90;;;;;;4957336;29;20556;-84
2022/11/12 04:14:47;;;;;;;8.30;5.87;;;9.30;99.90;;;;;;4978630;28;20570;-84
2022/11/12 04:23:50;;;;;;;10.83;7.53;;;9.20;99.90;;;;;;4941748;29;20850;-83
2022/11/12 04:26:40;;;;;;;6.90;6.20;;;9.20;99.90;;;;;;4957802;28;20485;-84
2022/11/12 04:32:20;;;;;;;10.03;6.77;;;9.20;99.90;;;;;;4986007;23;21375;-85
2022/11/12 04:35:06;;;;;;;9.93;7.07;;;9.10;99.90;;;;;;4967484;28;20593;-84
2022/11/12 04:37:43;;;;;;;7.63;6.90;;;9.20;99.90;;;;;;4986515;28;20477;-81
2022/11/12 04:46:21;;;;;;;6.27;5.63;;;9.00;99.90;;;;;;4983009;28;20431;-84
2022/11/12 04:49:28;;;;;;;8.53;7.20;;;8.90;99.90;;;;;;4967568;28;20486;-82
2022/11/12 04:52:13;;;;;;;7.53;6.77;;;9.00;99.90;;;;;;4969124;28;20552;-83
2022/11/12 04:55:24;;;;;;;8.80;7.23;;;8.90;99.90;;;;;;4961947;28;20478;-85
2022/11/12 04:57:57;;;;;;;9.40;6.40;;;8.90;99.90;;;;;;4982492;28;21027;-84
2022/11/12 05:00:48;;;;;;;7.60;6.77;;;8.90;99.90;;;;;;4996523;28;20455;-84
2022/11/12 05:03:36;;;;;;;8.53;7.23;;;9.00;99.90;;;;;;4984238;28;20473;-84
2022/11/12 05:06:50;;;;;;;7.43;6.70;;;8.80;99.90;;;;;;4995703;28;20521;-85
2022/11/12 05:09:26;;;;;;;10.20;7.07;;;8.90;99.90;;;;;;4996037;28;20453;-83
2022/11/12 05:12:09;;;;;;;9.47;6.43;;;8.90;99.90;;;;;;4997226;28;20539;-84
2022/11/12 05:14:48;;;;;;;9.33;7.13;;;8.80;99.90;;;;;;5015840;28;20446;-82
2022/11/12 05:17:48;;;;;;;9.93;7.53;;;8.90;99.90;;;;;;4976055;28;20478;-82
2022/11/12 05:20:36;;;;;;;6.73;6.03;;;8.90;99.90;;;;;;4990812;28;20519;-83
2022/11/12 05:23:30;;;;;;;8.80;6.87;;;8.80;99.90;;;;;;4990467;28;20474;-84
2022/11/12 05:26:34;;;;;;;7.80;6.10;;;8.80;99.90;;;;;;4986980;28;20500;-85
2022/11/12 05:29:28;;;;;;;8.47;6.13;;;8.80;99.90;;;;;;4989419;28;20561;-84
2022/11/12 05:32:26;;;;;;;10.00;7.30;;;8.80;99.90;;;;;;4979971;28;20471;-84
2022/11/12 05:35:23;;;;;;;7.60;6.33;;;8.90;99.90;;;;;;4942969;29;20536;-84
2022/11/12 05:38:05;;;;;;;7.53;6.73;;;8.90;99.90;;;;;;4957828;28;20491;-83
2022/11/12 05:41:00;;;;;;;10.10;6.63;;;8.70;99.90;;;;;;4982409;28;20490;-84
2022/11/12 05:44:01;;;;;;;7.70;7.00;;;8.70;99.90;;;;;;4984501;28;20479;-82
2022/11/12 05:46:39;;;;;;;8.70;7.30;;;8.80;99.90;;;;;;4984624;28;20454;-81
2022/11/12 05:49:44;;;;;;;6.93;5.57;;;8.50;99.90;;;;;;4971899;28;21018;-83
2022/11/12 05:52:25;;;;;;;7.33;6.40;;;8.40;99.90;;;;;;4990833;28;20497;-83
2022/11/12 05:55:35;;;;;;;6.40;5.80;;;8.60;99.90;;;;;;4970269;28;20501;-83
2022/11/12 05:58:52;;;;;;;;;;;;;;;;;;;;;
2022/11/12 06:01:29;;;;;;;6.50;6.00;;;8.50;99.90;;;;;;5002796;28;20457;-84
2022/11/12 06:15:41;;;;;;;8.03;6.63;;;8.40;99.90;;;;;;4840905;29;21047;-82
2022/11/12 06:18:53;;;;;;;8.50;7.07;;;8.30;99.90;;;;;;4908520;29;20490;-82
2022/11/12 06:21:26;;;;;;;11.53;7.03;;;8.30;99.90;;;;;;4915411;29;20482;-84
2022/11/12 06:24:09;;;;;;;7.77;6.97;;;8.20;99.90;;;;;;5012312;23;20854;-85
2022/11/12 06:26:43;;;;;;;7.53;6.40;;;8.00;99.90;;;;;;4989648;28;20831;-85
2022/11/12 06:29:24;;;;;;;6.20;5.60;;;8.00;99.90;;;;;;4990582;28;20481;-85
2022/11/12 06:34:45;;;;;;;7.40;6.77;;;8.20;99.90;;;;;;3084801;26;21122;-85
2022/11/12 06:37:34;;;;;;;7.43;6.67;;;8.20;99.90;;;;;;4976118;28;20485;-84
2022/11/12 06:40:19;;;;;;;8.03;6.40;;;8.20;99.90;;;;;;4981178;28;20490;-84
2022/11/12 06:43:06;;;;;;;9.93;7.00;;;8.00;99.90;;;;;;4967862;28;20477;-84
2022/11/12 06:45:39;;;;;;;8.93;6.63;;;8.00;99.90;;;;;;4981935;28;20533;-83
2022/11/12 06:48:24;;;;;;;8.23;6.50;;;8.00;99.90;;;;;;4984376;28;21000;-84
2022/11/12 06:51:32;;;;;;;9.93;6.60;;;8.10;99.90;;;;;;4968522;28;20506;-83
2022/11/12 06:54:20;;;;;;;6.90;6.10;;;8.10;99.90;;;;;;4946540;28;20469;-83
2022/11/12 06:56:58;;;;;;;8.77;6.60;;;8.30;99.90;;;;;;4995956;28;20482;-84
2022/11/12 06:59:50;;;;;;;7.90;7.10;;;8.50;99.90;;;;;;4984073;28;20502;-84
2022/11/12 07:02:35;;;;;;;6.83;6.13;;;8.40;99.90;;;;;;4980963;28;21027;-85
2022/11/12 07:05:58;;;;;;;7.20;6.20;;;8.30;99.90;;;;;;4993675;28;20492;-84
2022/11/12 07:08:47;;;;;;;7.03;6.33;;;8.30;99.90;;;;;;4984801;28;20474;-84
2022/11/12 07:11:21;;;;;;;6.67;6.00;;;8.50;99.90;;;;;;4985332;28;20483;-83
2022/11/12 07:14:05;;;;;;;6.60;5.70;;;8.50;99.90;;;;;;4984487;28;20462;-84
2022/11/12 07:16:51;;;;;;;8.17;6.17;;;8.40;99.90;;;;;;4976137;28;20486;-82
2022/11/12 07:19:35;;;;;;;6.30;5.53;;;8.30;99.90;;;;;;4974932;28;20457;-83
2022/11/12 07:22:22;;;;;;;9.80;6.10;;;8.60;99.90;;;;;;4993372;28;20512;-84
2022/11/12 07:25:07;;;;;;;7.23;6.37;;;8.60;99.90;;;;;;4924931;29;20487;-83
2022/11/12 07:28:15;;;;;;;6.40;5.80;;;8.70;99.90;;;;;;4925895;29;20471;-82
2022/11/12 07:31:06;;;;;;;8.07;5.90;;;8.50;99.90;;;;;;4926597;29;20468;-82
2022/11/12 07:33:42;;;;;;;8.60;6.70;;;8.50;99.90;;;;;;4917235;29;20507;-84
2022/11/12 07:36:53;;;;;;;6.33;5.73;;;8.40;99.90;;;;;;4916037;29;20466;-84
2022/11/12 07:39:37;;;;;;;7.97;6.30;;;8.50;99.90;;;;;;4924184;29;20458;-83
2022/11/12 07:42:13;;;;;;;7.80;6.17;;;8.50;99.90;;;;;;4923843;28;20524;-83
2022/11/12 07:45:01;;;;;;;7.17;6.57;;;8.50;99.90;;;;;;4985569;28;20444;-84
2022/11/12 07:47:39;;;;;;;6.83;5.93;;;8.40;99.90;;;;;;4983282;28;20459;-84
2022/11/12 07:50:27;;;;;;;7.83;5.90;;;8.50;99.90;;;;;;4983264;28;20466;-83
2022/11/12 07:53:22;;;;;;;6.20;5.60;;;8.70;99.90;;;;;;4974379;28;20482;-82
2022/11/12 07:58:44;;;;;;;13.47;6.60;;;8.70;99.90;;;;;;5028707;23;20505;-84
2022/11/12 08:01:44;;;;;;;9.00;6.20;;;8.70;99.90;;;;;;4986283;28;20462;-83
2022/11/12 08:04:21;;;;;;;6.67;4.87;;;8.90;99.90;;;;;;4975984;28;21284;-83
2022/11/12 08:10:23;;;;;;;6.47;5.00;;;9.00;99.90;;;;;;4977169;28;20457;-85
2022/11/12 08:13:05;;;;;;;6.20;5.50;;;9.00;99.90;;;;;;4966500;28;20490;-85
2022/11/12 08:15:39;;;;;;;6.10;5.50;;;9.10;99.90;;;;;;4966407;28;20448;-84
2022/11/12 08:18:34;;;;;;;9.23;5.93;;;9.20;99.90;;;;;;4985811;28;20479;-83
2022/11/12 08:21:14;;;;;;;6.40;5.37;;;9.30;99.90;;;;;;4967015;28;20447;-84
2022/11/12 08:23:45;;;;;;;7.43;5.90;;;9.30;99.90;;;;;;4967712;28;20464;-84
2022/11/12 08:26:23;;;;;;;8.80;6.43;;;9.30;99.90;;;;;;4969564;28;20459;-84
2022/11/12 08:28:58;;;;;;;5.40;4.90;;;9.20;99.90;;;;;;4979718;28;20457;-84
2022/11/12 08:31:39;;;;;;;6.00;4.93;;;9.40;99.90;;;;;;4971346;28;20470;-84
2022/11/12 08:34:12;;;;;;;5.60;4.30;;;9.50;99.90;;;;;;4975480;28;21261;-82
2022/11/12 08:36:59;;;;;;;6.90;5.83;;;9.60;99.90;;;;;;4955978;28;20466;-82
2022/11/12 08:39:36;;;;;;;6.03;5.40;;;9.30;99.90;;;;;;4977913;28;20586;-82
2022/11/12 08:42:06;;;;;;;6.50;5.27;;;9.40;99.90;;;;;;4992347;28;20479;-83
2022/11/12 08:44:42;;;;;;;9.10;5.53;;;9.50;99.90;;;;;;4991835;28;20483;-83
2022/11/12 08:47:21;;;;;;;6.70;5.20;;;9.60;99.90;;;;;;4978613;28;20441;-83
2022/11/12 08:49:53;;;;;;;8.57;6.20;;;9.70;99.90;;;;;;4980000;28;20454;-83
2022/11/12 08:52:19;;;;;;;6.70;5.80;;;9.80;99.90;;;;;;4964389;28;20467;-85
2022/11/12 08:54:57;;;;;;;7.73;6.07;;;9.90;99.90;;;;;;4961209;28;20444;-85
2022/11/12 08:57:29;;;;;;;5.67;5.17;;;10.10;99.90;;;;;;4956771;29;20481;-84
2022/11/12 09:00:01;;;;;;;7.97;5.33;;;10.10;99.90;;;;;;4955928;29;20477;-85
2022/11/12 09:02:33;;;;;;;5.87;4.80;;;10.20;99.90;;;;;;4957780;28;20486;-84
2022/11/12 09:05:01;;;;;;;6.30;5.20;;;10.30;99.90;;;;;;4947885;29;20467;-84
2022/11/12 09:07:31;;;;;;;5.80;5.20;;;10.40;99.90;;;;;;4956185;29;20501;-84
2022/11/12 09:10:20;;;;;;;6.40;5.43;;;10.40;99.90;;;;;;4958282;29;20475;-84
2022/11/12 09:12:52;;;;;;;6.70;5.33;;;10.60;99.90;;;;;;4959941;28;20486;-83
2022/11/12 09:15:34;;;;;;;7.07;5.07;;;10.60;99.90;;;;;;4950769;29;20466;-84
2022/11/12 09:18:15;;;;;;;6.23;5.23;;;10.70;99.90;;;;;;4957991;29;20470;-84
2022/11/12 09:20:47;;;;;;;5.13;4.63;;;10.60;99.90;;;;;;4955007;29;20503;-85
2022/11/12 09:23:18;;;;;;;5.93;5.13;;;10.80;99.90;;;;;;4957009;28;20475;-85
2022/11/12 09:25:45;;;;;;;6.13;5.53;;;11.10;99.90;;;;;;4951330;29;20453;-84
2022/11/12 09:28:18;;;;;;;6.30;5.70;;;11.50;99.90;;;;;;4960382;28;20523;-84
2022/11/12 09:30:48;;;;;;;4.93;4.53;;;12.80;97.80;;;;;;4957119;29;20457;-85
2022/11/12 09:33:30;;;;;;;5.73;5.10;;;13.80;95.20;;;;;;4959858;28;20483;-84
2022/11/12 09:36:12;;;;;;;5.83;4.70;;;14.50;93.80;;;;;;4960354;29;20487;-85
2022/11/12 09:38:45;;;;;;;5.47;4.97;;;15.60;92.00;;;;;;4957802;29;21013;-85
2022/11/12 09:41:46;;;;;;;5.00;4.40;;;15.70;90.60;;;;;;4972352;28;20466;-84
2022/11/12 09:44:23;;;;;;;5.13;4.73;;;15.10;91.00;;;;;;4953593;29;20457;-84
2022/11/12 09:47:25;;;;;;;5.93;5.40;;;14.40;92.30;;;;;;4957860;28;20456;-83
2022/11/12 09:50:37;;;;;;;5.43;4.20;;;14.60;92.90;;;;;;4969686;28;20474;-85
2022/11/12 09:53:36;;;;;;;5.20;4.70;;;14.90;92.70;;;;;;4956562;28;20492;-84
2022/11/12 09:56:20;;;;;;;5.53;4.80;;;14.40;92.30;;;;;;4956239;29;20475;-84
2022/11/12 09:58:55;;;;;;;6.60;4.73;;;13.60;93.60;;;;;;4963197;28;20508;-84
2022/11/12 10:01:44;;;;;;;5.83;5.27;;;13.40;94.70;;;;;;4990552;28;20450;-83
2022/11/12 10:04:50;;;;;;;6.83;4.43;;;13.20;95.30;;;;;;4983658;28;20430;-82
2022/11/12 10:07:45;;;;;;;5.60;4.80;;;13.00;96.10;;;;;;4994255;28;20453;-83
2022/11/12 10:10:31;;;;;;;4.80;4.30;;;12.70;96.40;;;;;;4981934;28;21015;-84
2022/11/12 10:13:42;;;;;;;5.47;4.97;;;12.70;96.60;;;;;;4967777;28;20536;-83
2022/11/12 10:20:08;;;;;;;5.40;4.90;;;12.80;97.20;;;;;;4982305;28;20474;-86
2022/11/12 10:23:04;;;;;;;6.93;5.43;;;12.60;97.70;;;;;;4965650;28;20466;-82
2022/11/12 10:25:45;;;;;;;4.60;4.20;;;12.60;98.00;;;;;;4981365;28;20454;-86
2022/11/12 10:28:46;;;;;;;5.33;4.40;;;12.50;97.60;;;;;;4968266;28;20530;-85
2022/11/12 10:31:22;;;;;;;5.70;4.83;;;12.90;97.90;;;;;;4982873;28;20514;-84
2022/11/12 10:34:27;;;;;;;4.63;4.23;;;12.80;97.70;;;;;;4927033;29;20436;-85
2022/11/12 10:37:25;;;;;;;5.97;5.20;;;13.00;97.80;;;;;;4939822;29;20473;-85
2022/11/12 10:39:55;;;;;;;6.10;5.30;;;13.20;97.30;;;;;;4916004;29;20454;-86
2022/11/12 10:42:35;;;;;;;11.30;6.90;;;13.10;97.10;;;;;;4924383;29;20536;-82
2022/11/12 10:45:20;;;;;;;5.83;4.43;;;13.30;97.10;;;;;;4919742;29;20461;-83
2022/11/12 10:48:00;;;;;;;5.60;5.03;;;13.30;96.80;;;;;;4922699;29;20494;-84
2022/11/12 10:50:49;;;;;;;5.90;5.30;;;13.40;96.90;;;;;;4923180;29;20523;-84
2022/11/12 10:56:06;;;;;;;4.20;3.90;;;13.40;96.80;;;;;;5017350;28;20477;-83
2022/11/12 10:58:38;;;;;;;4.60;4.20;;;13.50;96.80;;;;;;5018786;28;20477;-83
2022/11/12 11:01:22;;;;;;;5.93;4.63;;;13.30;96.80;;;;;;5014434;28;20435;-84
2022/11/12 11:04:26;;;;;;;5.80;4.60;;;13.30;97.10;;;;;;4984556;28;20439;-85
2022/11/12 11:07:23;;;;;;;6.60;4.87;;;13.10;97.10;;;;;;4964835;28;20476;-84
2022/11/12 11:10:13;;;;;;;4.83;4.43;;;13.50;97.20;;;;;;4957994;28;20457;-85
2022/11/12 11:13:26;;;;;;;6.20;4.60;;;13.50;96.90;;;;;;4955029;28;20501;-85
2022/11/12 11:16:13;;;;;;;;;;;;;;;;;;;;;
2022/11/12 11:19:02;;;;;;;6.03;5.40;;;13.60;97.00;;;;;;4981955;28;20504;-85
2022/11/12 11:21:50;;;;;;;6.70;5.40;;;13.60;97.20;;;;;;4964759;28;20465;-84
2022/11/12 11:24:53;;;;;;;5.33;4.90;;;13.80;96.90;;;;;;4953496;28;20542;-83
2022/11/12 11:27:57;;;;;;;5.63;4.67;;;13.70;96.90;;;;;;4957357;28;20825;-84
2022/11/12 11:30:29;;;;;;;5.63;5.13;;;13.60;97.30;;;;;;4972815;28;20521;-85
2022/11/12 11:33:04;;;;;;;6.07;5.00;;;13.80;97.10;;;;;;4965511;28;20488;-82
2022/11/12 11:36:17;;;;;;;5.90;4.60;;;13.80;97.30;;;;;;4907876;29;20453;-83
2022/11/12 11:39:24;;;;;;;6.10;5.60;;;14.10;96.80;;;;;;4906800;29;20571;-84
2022/11/12 11:42:50;;;;;;;;;;;;;;;;;;;;;
2022/11/12 11:46:04;;;;;;;6.00;5.40;;;13.80;97.50;;;;;;4965577;28;20562;-85
2022/11/12 11:48:59;;;;;;;6.70;5.20;;;13.80;97.30;;;;;;4956964;28;20595;-84
2022/11/12 11:52:02;;;;;;;5.97;5.23;;;14.00;97.50;;;;;;4953581;28;20467;-84
2022/11/12 11:54:54;;;;;;;11.97;5.80;;;13.70;97.40;;;;;;4978032;28;20468;-83
2022/11/12 11:57:53;;;;;;;5.90;5.30;;;14.00;97.80;;;;;;4944694;29;20455;-85
2022/11/12 12:00:57;;;;;;;;;;;;;;;;;;;;;
2022/11/12 12:04:38;;;;;;;6.03;5.43;;;14.40;97.00;;;;;;4945128;29;20802;-83
2022/11/12 12:15:03;;;;;;;5.67;5.17;;;14.30;97.00;;;;;;4963955;29;20431;-85
2022/11/12 12:21:53;;;;;;;;;;;;;;;;;;;;;
2022/11/12 12:24:58;;;;;;;6.10;5.60;;;14.50;97.10;;;;;;4945347;29;20520;-85
2022/11/12 12:27:54;;;;;;;;;;;;;;;;;;;;;
2022/11/12 12:31:14;;;;;;;5.77;5.07;;;14.70;96.90;;;;;;4964193;28;20448;-84
2022/11/12 12:34:32;;;;;;;6.50;5.00;;;15.00;96.60;;;;;;5006787;23;20510;-83
2022/11/12 12:38:01;;;;;;;6.10;5.50;;;15.10;96.80;;;;;;4920949;29;20466;-85
2022/11/12 12:41:39;;;;;;;6.40;5.73;;;15.10;96.50;;;;;;4904605;29;20466;-84
2022/11/12 12:45:03;;;;;;;4.80;4.30;;;14.80;96.90;;;;;;4899452;29;20471;-84
2022/11/12 12:48:09;;;;;;;8.00;4.50;;;14.90;97.00;;;;;;4887618;29;20529;-86
2022/11/12 12:51:18;;;;;;;5.13;4.20;;;15.20;96.20;;;;;;4895492;29;20475;-83
2022/11/12 12:54:34;;;;;;;6.57;5.40;;;15.00;96.40;;;;;;4976014;23;20571;-83
2022/11/12 12:57:30;;;;;;;6.83;5.47;;;14.90;96.80;;;;;;4892629;29;21399;-84
2022/11/12 13:04:02;;;;;;;6.47;5.30;;;15.20;96.30;;;;;;4848033;29;20473;-83
2022/11/12 13:07:18;;;;;;;6.90;4.37;;;15.30;96.50;;;;;;4821137;29;20461;-84
2022/11/12 13:10:46;;;;;;;5.73;5.23;;;15.30;96.60;;;;;;4831474;29;20476;-84
2022/11/12 13:21:28;;;;;;;6.50;6.00;;;14.90;97.00;;;;;;4888371;29;20444;-84
2022/11/12 13:24:16;;;;;;;5.10;4.60;;;15.20;96.90;;;;;;5018444;23;20951;-83
2022/11/12 13:27:10;;;;;;;5.23;4.30;;;15.30;96.70;;;;;;4981639;28;20517;-84
2022/11/12 13:29:41;;;;;;;6.27;4.63;;;15.10;96.80;;;;;;4976708;28;20451;-84
2022/11/12 13:36:48;;;;;;;5.17;4.67;;;15.70;95.80;;;;;;4955388;29;20543;-85
2022/11/12 13:40:25;;;;;;;;;;;;;;;;;;;;;
2022/11/12 13:49:19;;;;;;;5.30;4.80;;;15.60;96.10;;;;;;3983333;23;20608;-84
2022/11/12 13:52:14;;;;;;;5.87;5.27;;;15.70;96.20;;;;;;4992712;28;20501;-84
2022/11/12 13:55:33;;;;;;;5.57;5.07;;;15.70;96.00;;;;;;5006168;28;20473;-84
2022/11/12 13:59:00;;;;;;;;;;;;;;;;;;;;;
2022/11/12 14:02:17;;;;;;;5.17;4.67;;;15.50;96.60;;;;;;5023061;28;20487;-84
2022/11/12 14:05:51;;;;;;;5.27;4.77;;;15.60;96.50;;;;;;5003546;28;20459;-84
2022/11/12 14:09:10;;;;;;;6.67;5.07;;;15.70;96.20;;;;;;4956514;28;21073;-85
2022/11/12 14:12:27;;;;;;;4.63;4.20;;;15.80;96.20;;;;;;4943503;29;20461;-84
2022/11/12 14:19:09;;;;;;;4.30;3.90;;;15.80;96.00;;;;;;5001623;28;20481;-83
2022/11/12 14:26:11;;;;;;;4.13;3.83;;;15.90;95.90;;;;;;4966431;28;20535;-84
2022/11/12 14:28:58;;;;;;;4.00;3.70;;;15.90;95.60;;;;;;4985374;28;20475;-83
2022/11/12 14:31:47;;;;;;;4.10;3.80;;;15.90;95.70;;;;;;5008335;28;20497;-83
2022/11/12 14:46:28;;;;;;;5.90;3.43;;;16.00;95.00;;;;;;4849847;29;20502;-84
2022/11/12 15:10:48;;;;;;;6.83;2.90;;;15.60;95.00;;;;;;5306747;23;20591;-85
2022/11/12 15:25:15;;;;;;;3.07;2.87;;;15.50;93.90;;;;;;4999803;26;20553;-84
2022/11/12 15:28:11;;;;;;;3.00;2.80;;;15.60;93.70;;;;;;5001842;28;20449;-84
2022/11/12 15:31:22;;;;;;;3.37;3.07;;;15.50;93.50;;;;;;4990954;28;20446;-82
2022/11/12 15:34:39;;;;;;;3.17;2.97;;;15.30;94.20;;;;;;4939158;28;20491;-83
2022/11/12 15:37:33;;;;;;;3.93;3.13;;;15.10;94.50;;;;;;4975029;28;20435;-85
2022/11/12 15:40:20;;;;;;;4.43;3.37;;;15.00;94.60;;;;;;4979958;28;20556;-83
2022/11/12 15:46:31;;;;;;;3.70;3.27;;;15.00;95.30;;;;;;4989421;28;20475;-83
2022/11/12 15:49:21;;;;;;;3.87;3.50;;;15.30;94.50;;;;;;4961150;28;20455;-84
2022/11/12 15:51:54;;;;;;;4.43;3.60;;;15.10;94.40;;;;;;4965275;28;20478;-85
2022/11/12 15:54:28;;;;;;;4.40;3.80;;;15.20;94.60;;;;;;4962498;28;20467;-84
2022/11/12 15:57:30;;;;;;;4.10;3.40;;;15.30;94.10;;;;;;4973698;28;20451;-83
2022/11/12 16:00:23;;;;;;;3.60;3.30;;;15.30;93.70;;;;;;4956122;28;20491;-84
2022/11/12 16:06:12;;;;;;;4.20;3.37;;;15.00;94.50;;;;;;4967542;28;20483;-84
2022/11/12 16:09:00;;;;;;;3.10;2.80;;;14.80;94.60;;;;;;4982781;28;21046;-83
2022/11/12 16:11:36;;;;;;;4.17;3.77;;;14.70;94.90;;;;;;4981202;28;20447;-82
2022/11/12 16:14:18;;;;;;;3.83;3.53;;;14.80;95.10;;;;;;4962087;29;20464;-84
2022/11/12 16:17:36;;;;;;;3.93;3.60;;;14.60;95.20;;;;;;4964917;29;20458;-85
2022/11/12 16:20:24;;;;;;;4.50;4.07;;;14.70;95.10;;;;;;4957170;28;20485;-84
2022/11/12 16:23:26;;;;;;;3.20;2.90;;;14.40;95.40;;;;;;4983744;28;20487;-84
2022/11/12 16:26:36;;;;;;;3.87;3.57;;;14.30;95.80;;;;;;4933058;29;20480;-83
2022/11/12 16:29:31;;;;;;;3.60;3.30;;;14.30;96.10;;;;;;4914291;29;20509;-82
2022/11/12 16:32:44;;;;;;;3.83;3.53;;;14.40;96.10;;;;;;4923514;29;21080;-84
2022/11/12 16:35:47;;;;;;;3.83;3.17;;;14.40;95.60;;;;;;4931818;29;20453;-85
2022/11/12 16:38:46;;;;;;;4.17;3.77;;;14.70;95.40;;;;;;4919479;29;20524;-83
2022/11/12 16:41:37;;;;;;;4.20;3.80;;;14.70;95.10;;;;;;4912858;29;20457;-84
2022/11/12 16:47:09;;;;;;;4.97;4.47;;;14.70;94.80;;;;;;4979412;28;20527;-84
2022/11/12 16:50:20;;;;;;;3.47;3.00;;;14.40;95.40;;;;;;4949150;28;20459;-84
2022/11/12 16:53:09;;;;;;;4.33;3.70;;;14.30;95.40;;;;;;4957715;28;20588;-84
2022/11/12 16:56:21;;;;;;;3.97;3.67;;;14.20;95.60;;;;;;4970049;28;20445;-84
2022/11/12 16:59:27;;;;;;;4.23;3.90;;;14.50;95.10;;;;;;4905846;29;20510;-84
2022/11/12 17:02:23;;;;;;;3.70;3.40;;;14.60;94.70;;;;;;4904604;29;20480;-85
2022/11/12 17:05:13;;;;;;;4.70;4.30;;;14.70;94.30;;;;;;4894393;29;20505;-84
2022/11/12 17:08:34;;;;;;;5.30;4.60;;;14.50;94.40;;;;;;4846982;29;20885;-84
2022/11/12 17:14:22;;;;;;;3.87;3.47;;;14.30;95.10;;;;;;4970941;28;20497;-84
2022/11/12 17:17:16;;;;;;;;;;;;;;;;;;;;;
2022/11/12 17:20:06;;;;;;;4.00;3.50;;;14.50;94.30;;;;;;4955715;29;20498;-85
2022/11/12 17:23:11;;;;;;;4.30;3.93;;;14.20;94.40;;;;;;4940102;29;20510;-84
2022/11/12 17:26:07;;;;;;;4.33;3.47;;;14.30;94.20;;;;;;4934892;29;20461;-83
2022/11/12 17:29:21;;;;;;;4.07;3.67;;;14.40;93.90;;;;;;4962401;29;21108;-85
2022/11/12 17:32:09;;;;;;;3.90;3.50;;;14.50;93.50;;;;;;4945848;29;20449;-85
2022/11/12 17:35:03;;;;;;;3.80;3.50;;;14.40;93.40;;;;;;4946442;29;20973;-85
2022/11/12 17:38:02;;;;;;;4.00;3.53;;;14.40;93.50;;;;;;4936474;29;20448;-84
2022/11/12 17:40:45;;;;;;;4.27;3.90;;;14.30;93.60;;;;;;4940448;29;20494;-84
2022/11/12 17:44:01;;;;;;;5.00;4.50;;;14.30;94.10;;;;;;4946043;29;20483;-84